Greenback, Tennessee
Current Conditions -  °F | °C
As of 8:53 PM on Saturday 20 Dec 2014 (Local Time) from KTYS Reporting Station
Overcast Overcast  
Wind Chill: 42°   Ceiling: 4300
Heat Index: 42°   Visibility: 10mi
Dew Point: 35°   Wind: 3mph
Humidity: 76%   Direction: 10°N
Pressure: 30.23"   Gusts: NA
Location:  35.66°N, 84.17°W
Report Text: KTYS 210153Z 01003KT 10SM OVC043 06/02 A3023 RMK AO2 SLP242 T00560017
Loading
Personal Weather Stations






























Interactive Weather Map New forecast layout! Learn more

10-Day Weather Forecast

Advertisements
Track Severe Weather on mobile